Race Schedule

  • 10:15 Race Line-up

  • 10:30 Race Begins

  • 1:30 Award Ceremony

  • Above the Napa Valley - Elevation 1667'
  • Race Director: Michael Hellie 707-965-6346
  • 10-mile multi-loop course:  see entry form for number of laps for your category
HOME INFORMATION START TIMES MAIL IN ENTRY FORM PHOTOS

 2011 Race     Result  Previous Years Results: 2010, 2009, 2008, 2007, 2006, 2005, 2004, 2003, 2002, 2001, 2000

Class_Name

Place

Name Result Race #  
Open Pro Male 1 Will Curtis 02:11:06 484  
Open Pro Male 2 Clint Claassen 02:14:58 734  
Open Pro Male 3 Brian Astell 02:18:06 716  
Open Pro Male 4 Danny McNaughton 02:22:40 728  
Open Pro Male 5 Todd Norwood 02:29:24 511  
Open Pro Single Speed Male 1 Michael Hosey 02:21:32 783  
Open Pro Single Speed Male 2 Cesar  Chavez 02:29:28 757  
Open Pro Single Speed Male 3 Mike Ewers 02:36:58 759  
Open Expert Single Speed Male 1 Bustos Eric 02:40:28 487  
18 & Under Cat 1 Male 1 Tony Smith 02:14:16 786  
18 & Under Cat 1 Male 2 Taylor Smith 02:14:35 769  
18 & Under Cat 1 Male 3 Max Houtzager 02:18:05 787  
18 & Under Cat 1 Male 4 Lucas Newcomb 02:20:31 579  
18 & Under Cat 1 Male 5 Jimmy Winne 02:23:43 567  
18 & Under Cat 1 Male 6 Matthew Erbentraut 02:26:37 564  
18 & Under Cat 1 Male 7 Brandon Dillard 02:29:55 727  
18 & Under Cat 1 Male 8 Marcus Segedin 02:34:41 551  
18 & Under Cat 1 Male 9 Silas Blunk 02:57:24 503  
19-34 Cat 1 Male 1 Brue Syversten 02:20:03 721  
19-34 Cat 1 Male 2 Marshall Eames 02:22:44 774  
19-34 Cat 1 Male 3 William Kemper 02:23:31 600  
19-34 Cat 1 Male 4 Shiloh Kantz 02:24:10 713  
19-34 Cat 1 Male 5 Brian Butler 02:24:19 589  
19-34 Cat 1 Male 6 Andrew Taylor 02:26:37 512  
19-34 Cat 1 Male 7 Riley Howard 02:32:21 477  
19-34 Cat 1 Male 8 David Miller 02:34:59 766  
19-34 Cat 1 Male 9 Mark Wheeler 02:38:57 545  
19-34 Cat 1 Male 10 Russ Forthuber 02:39:58 777  
19-34 Cat 1 Male 11 Reid Lionakis 02:42:41 531  
19-34 Cat 1 Male 12 Tom Hammond 02:43:13 791  
19-34 Cat 1 Male 13 Robert Butner 02:51:49 490  
19-34 Cat 1 Male 14 Brett Butler 02:55:18 591  
19-34 Cat 1 Male 15 Ryan Price 02:58:56 745  
35-44 Cat 1 Male 1 Carl Sanders 02:28:48 758  
35-44 Cat 1 Male 2 Matt Jordan 02:30:41 594  
35-44 Cat 1 Male 3 Scott Zavack 02:34:24 498  
35-44 Cat 1 Male 4 Alex Rouch 02:35:49 712  
35-44 Cat 1 Male 5 Mark Studnicki 02:36:44 779  
35-44 Cat 1 Male 6 Michael Campbell 02:38:53 741  
35-44 Cat 1 Male 7 Oliver Souza 02:40:43 771  
35-44 Cat 1 Male 8 Bryan Berry 02:40:55 556  
35-44 Cat 1 Male 9 Daniele Farnedi 02:45:39 486  
35-44 Cat 1 Male 10 Geoff Luttrell 02:53:50 510  
45-54 Cat 1 Male 1 Kevin Merrigan 02:26:08 541  
45-54 Cat 1 Male 2 Tao Bernardi 02:26:28 576  
45-54 Cat 1 Male 3 Marc Kirberg 02:33:34 765  
45-54 Cat 1 Male 4 Jerome Heiberger 02:35:23 506  
45-54 Cat 1 Male 5 Chris Urban 02:39:27 710  
45-54 Cat 1 Male 6 Cliff Millemann 02:39:48 717  
45-54 Cat 1 Male 7 Paul Montgomery 02:43:52 566  
45-54 Cat 1 Male 8 Curtis Kimble 02:51:25 537  
45-54 Cat 1 Male 9 David Wolbeck 02:55:07 790  
45-54 Cat 1 Male 10 Paul Ellison 02:56:57 755  
45-54 Cat 1 Male 11 Steve Villareale 03:03:02 592  
55+ Cat 1 Male 1 Jeffrey Townsend 01:44:01 495  
55+ Cat 1 Male 2 Ted Thomas 01:49:31 570  
55+ Cat 1 Male 3 Rick Timossi 01:54:18 720  
55+ Cat 1 Male 4 Mark Porter 02:03:06 535  
55+ Cat 1 Male 5 Ron Riley 02:33:14 542  
18 & under Cat 1 Female 1 Kate Courtney 02:54:28 730  
18 & under Cat 1 Female 2 Sofia Hamilton 03:08:38 731  
19-34 Cat 1 Female 1 Natalie Morris 02:58:46 743  
19-34 Cat 1 Female 2 Michelle Monroe 03:08:48 590  
35-54 Cat 1 Female 1 Julie Porter 02:05:27 782  
55+ Cat 1 Female 1 Karen Rehder 02:37:35 500  
Open Sport Single Speed Male 1 Dennis Belisle 01:48:53 708  
Open Sport Single Speed Male 2 Kevin Gambini 01:50:02 597  
Open Sport Single Speed Male 3 Michael Jordan 01:50:10 475  
Open Sport Single Speed Male 4 Mike Morgenfeld 01:55:28 549  
Open Sport Single Speed Male 5 Miguel Pondon 01:59:58 496  
Open Sport Single Speed Male 6 Keith Flood 02:09:02 514  
18 & under Cat 2 Male 1 Kyle Heuerman 01:55:35 565  
18 & under Cat 2 Male 2 Mark Tingwald 01:58:09 735  
18 & under Cat 2 Male 3 Seth Francis 01:58:10 559  
19-34 Cat 2 Male 1 Oliver Trixl 01:48:29 522  
19-34 Cat 2 Male 2 Charles De Pottere 01:48:51 526  
19-34 Cat 2 Male 3 Aaron Faupell 01:49:06 789  
19-34 Cat 2 Male 4 Chad Arkoff 01:49:31 780  
19-34 Cat 2 Male 5 Seth Leidy 01:53:45 581  
19-34 Cat 2 Male 6 Robert Spies 02:02:43 707  
19-34 Cat 2 Male 7 Jason Gondzjuk 02:10:45 706  
19-34 Cat 2 Male 8 Karl Tingwald 02:10:55 733  
19-34 Cat 2 Male 9 Brandon Senn 02:10:59 587  
19-34 Cat 2 Male 10 Nathanael Pope 02:11:02 554  
19-34 Cat 2 Male 11 Marshall Hayman 02:14:30 736  
19-34 Cat 2 Male 12 Nathaniel Eng 02:14:53 744  
19-34 Cat 2 Male 13 Matthew Bush 02:19:48 775  
35-44 Cat 2 Male 1 Marcus Gosling 01:41:18 746  
35-44 Cat 2 Male 2 Brian Baxter 01:47:02 767  
35-44 Cat 2 Male 3 Pat Beckley 01:48:08 703  
35-44 Cat 2 Male 4 Tom Taylor 01:50:17 784  
35-44 Cat 2 Male 5 Zach Thorp  01:50:17 497  
35-44 Cat 2 Male 6 John Clark 01:50:45 563  
35-44 Cat 2 Male 7 Tom Campeau 01:51:22 762  
35-44 Cat 2 Male 8 Joe Narciso 01:51:48 561  
35-44 Cat 2 Male 9 David Barrett 01:52:35 540  
35-44 Cat 2 Male 10 Gil Castillo 01:52:44 481  
35-44 Cat 2 Male 11 Alex Kramer 01:53:45 788  
35-44 Cat 2 Male 12 Dennis Luz 01:54:36 491  
35-44 Cat 2 Male 13 Michael Kalin 01:54:42 519  
35-44 Cat 2 Male 14 Christopher DuBurg 01:55:03 599  
35-44 Cat 2 Male 15 Jim Drogo 01:56:33 499  
35-44 Cat 2 Male 16 Paul Coleman 01:57:11 502  
35-44 Cat 2 Male 17 Dave Buciak 01:59:07 532  
35-44 Cat 2 Male 18 Chris Purio 02:00:28 513  
35-44 Cat 2 Male 19 Mike Manuel 02:01:23 776  
35-44 Cat 2 Male 20 Brett Kelley 02:02:09 742  
35-44 Cat 2 Male 21 Jeff Bilodeau 02:04:11 555  
35-44 Cat 2 Male 22 Tim Simanski 02:04:44 595  
35-44 Cat 2 Male 23 Joshua Walker 02:05:57 560  
35-44 Cat 2 Male 24 Peter Repetti 02:06:53 553  
35-44 Cat 2 Male 25 Maurice Revrich 02:14:19 739  
35-44 Cat 2 Male 26 Thomas Switzer 02:17:49 588  
35-44 Cat 2 Male 27 John Facundo Jr. 02:18:15 598  
35-44 Cat 2 Male 28 Christopher Buzzard 02:18:16 574  
35-44 Cat 2 Male 29 Brian Ray 02:25:10 572  
35-44 Cat 2 Male 30 Jeffrey Apple 02:25:42 492  
45-54 Cat 2 Male 1 Fritz Wuthrich 01:45:10 485  
45-54 Cat 2 Male 2 John Vipiana 01:47:09 539  
45-54 Cat 2 Male 3 Rick Ferdinandsen 01:51:46 552  
45-54 Cat 2 Male 4 Dirk Asch 01:53:34 778  
45-54 Cat 2 Male 5 Joe Molinari 01:57:32 585  
45-54 Cat 2 Male 6 Thomas Jakoby 01:59:29 702  
45-54 Cat 2 Male 7 Matthew Gregory 02:00:11 517  
45-54 Cat 2 Male 8 Robert Picard 02:00:25 488  
45-54 Cat 2 Male 9 Jim English 02:01:16 575  
45-54 Cat 2 Male 10 Tim Dennis 02:01:22 729  
45-54 Cat 2 Male 11 Kurt Brown 02:01:42 709  
45-54 Cat 2 Male 12 John Miller 02:04:10 768  
45-54 Cat 2 Male 13 Dino Basaldella  02:04:44 494  
45-54 Cat 2 Male 14 Steve Reddie 02:07:42 761  
45-54 Cat 2 Male 15 Tom Strause 02:10:24 573  
45-54 Cat 2 Male 16 Ric Rodriguez 02:15:24 548  
45-54 Cat 2 Male 17 Joe Fritz 02:23:39 715  
45-54 Cat 2 Male 18 Theo Buckendorf 02:32:55 558  
45-54 Cat 2 Male 19 John Roberts 03:22:26 478  
55+ Cat 2 Male 1 Jim Lund 01:53:57 557  
55+ Cat 2 Male 2 Dan Nelson 02:07:17 756  
55+ Cat 2 Male 3 Tozz Reynolds 02:19:44 580  
Open Clydesdale Male 1 David Pauls 01:58:39 525  
Open Clydesdale Male 2 Chad Davidson 02:08:12 550  
Open Clydesdale Male 3 Eduard Burt 02:09:51 516  
Open Clydesdale Male 4 Derald Sue 02:09:52 508  
Open Clydesdale Male 5 Edward Cruz 02:12:06 732  
Open Clydesdale Male 6 James Clark 02:15:36 738  
Open Clydesdale Male 7 Greg Slack 02:23:27 785  
19-34 Cat 2 Female 1 Kari Forbes 02:21:55 578  
19-34 Cat 2 Female 2 Stephanie Miller 02:28:02 770  
19-34 Cat 2 Female 3 Elaine Minton 02:59:20 476  
35-54 Cat 2 Female 1 Kristen Vetterlein 01:59:46 577  
35-54 Cat 2 Female 2 Petra Lindquist-Kirberg 02:06:11 489  
35-54 Cat 2 Female 3 Valerie Alexander 02:08:35 704  
35-54 Cat 2 Female 4 Lauren Liden 02:11:02 781  
35-54 Cat 2 Female 5 Sarah Murphy 02:18:13 533  
35-54 Cat 2 Female 6 Jennifer  White 02:25:13 473  
35-54 Cat 2 Female 7 Becky Brain 02:33:25 538  
35-54 Cat 2 Female 8 Joy Cooper 02:42:24 764  
13 & under Cat 3 Male 1 Gilbert Castillo 01:29:00 482  
14-18 Cat 3 Male 1 Nicholas Quiroz 01:10:34 725  
14-18 Cat 3 Male 2 Ryan  Grutze 01:10:39 527  
14-18 Cat 3 Male 3 Bradley Thomas 01:12:10 571  
19-34 Cat 3 Male 1 Andrew Gustafson 01:06:48 544  
14-18 Cat 3 Male 2 Joshua Moran 01:07:43 701  
19-34 Cat 3 Male 3 Chris Borjian 01:31:12 562  
19-34 Cat 3 Male 4 Chris Miller 01:33:58 723  
35-44 Cat 3 Male 1 Avi Kumar 01:06:30 596  
35-44 Cat 3 Male 2 Matthew Blain 01:08:51 483  
35-44 Cat 3 Male 3 Jason Woodward 01:09:52 523  
35-44 Cat 3 Male 4 Martin Hendess 01:15:11 528  
35-44 Cat 3 Male 5 Damon Ropoulos 01:23:53 521  
35-44 Cat 3 Male 6 Michael Tein 01:40:34 737  
35-44 Cat 3 Male 7 Moses Ramirez 01:46:59 546  
45-54 Cat 3 Male 1 Charles McGadden 01:12:37 515  
45-54 Cat 3 Male 2 Hunter Sykes 01:16:11 773  
45-54 Cat 3 Male 3 Jeff Fruit 01:16:34 479  
45-54 Cat 3 Male 4 Nick Ampon 01:27:01 543  
45-54 Cat 3 Male 5 Jeff Lawrence 01:29:04 504  
45-54 Cat 3 Male 6 David Smith 01:38:17 584  
55+ Cat 3 Male 1 Glenn  Pope 01:14:52 583  
55+ Cat 3 Male 2 Paul Smith 01:21:38 747  
55+ Cat 3 Male 3 Randall Souza 01:22:55 582  
18 & under Cat 3 Female 1 Kelsey Urban 01:29:12 711  
19-34 Cat 3 Female 1 Karla  Barragan 02:00:20 505  
35-54 Cat 3 Female 1 Jamie Whitmore 01:20:24 722  
35-54 Cat 3 Female 2 Michele Coleman 01:27:32 760  
35-54 Cat 3 Female 3 Alissa Sykes 01:27:39 772  
35-54 Cat 3 Female 4 Pilar Rand 01:29:46 518  
35-54 Cat 3 Female 5 Terrie Fontes 01:31:01 569  
35-54 Cat 3 Female 6 Amy Kalin 02:01:30 520